• Join FlightAware (Why Join?)
  • Login
  • US Flag 
03:05AM EDT


 

Airport Tracker/Info


-or-


 

Live Flight TrackerFlight Track Log ✈ DAL892 ✈ 02-May-2012 ✈ KDTW - KTPA

Flight Track Log - Related Links

Times and Time Zones

All times are in EDT time to prevent confusion due to time zone crossing. See the DAL892 flight status page for this flight to view local times or setup timezone preferences in your user account.

Time Position Orientation Groundspeed Altitude Reporting Facility
EDT Latitude Longitude Course Direction KTS MPH feet Rate Location/Type
07:32AM 42.2036 -83.3556 218° Southwest 147 169 1,300  Level Cleveland Center
07:33AM 42.1803 -83.3797 205° Southwest 173 199 2,200 1,320 Climbing Cleveland Center
07:33AM 42.1611 -83.3917 211° Southwest 222 255 2,800 2,160 Climbing FAA TRACON SMA TRACON (SMA)
07:34AM 42.1206 -83.4247 196° South 256 295 4,800 3,180 Climbing FAA TRACON SMA TRACON (SMA)
07:35AM 42.0756 -83.4422 169° South 274 315 7,100 3,180 Climbing FAA TRACON SMA TRACON (SMA)
07:35AM 42.0219 -83.4281 169° South 293 337 9,100 2,760 Climbing FAA TRACON SMA TRACON (SMA)
07:36AM 41.9658 -83.4136 170° South 307 353 10,800 2,100 Climbing FAA TRACON SMA TRACON (SMA)
07:37AM 41.9022 -83.3981 170° South 354 407 11,900 2,160 Climbing FAA TRACON SMA TRACON (SMA)
07:37AM 41.8372 -83.3819 169° South 368 423 13,700 2,700 Climbing FAA TRACON SMA TRACON (SMA)
07:38AM 41.7658 -83.3639 189° South 374 430 15,600 2,460 Climbing FAA TRACON SMA TRACON (SMA)
07:39AM 41.6975 -83.3783 193° South 376 433 17,000 2,160 Climbing FAA TRACON SMA TRACON (SMA)
07:39AM 41.6306 -83.3986 193° South 383 441 18,500 2,100 Climbing FAA TRACON SMA TRACON (SMA)
07:40AM 41.5569 -83.4222 194° South 389 448 19,900 1,920 Climbing FAA TRACON SMA TRACON (SMA)
07:41AM 41.4844 -83.4458 193° South 402 463 21,100 1,800 Climbing FAA TRACON SMA TRACON (SMA)
07:41AM 41.4119 -83.4678 192° South 409 471 22,300 1,620 Climbing FAA TRACON SMA TRACON (SMA)
07:42AM 41.3603 -83.4825 194° South 414 476 23,000 1,560 Climbing Cleveland Center
07:43AM 41.2406 -83.5214 195° South 431 496 24,700 1,500 Climbing Cleveland Center
07:44AM 41.0178 -83.5983 192° South 463 533 27,200 1,380 Climbing Indianapolis Center
07:45AM 40.8950 -83.6339 193° South 463 533 28,600 1,200 Climbing Indianapolis Center
07:46AM 40.7658 -83.6722 195° South 463 533 29,700 1,140 Climbing Indianapolis Center
07:47AM 40.6553 -83.7103 192° South 469 540 30,900 1,200 Climbing Indianapolis Center
07:48AM 40.5261 -83.7456 194° South 469 540 32,200 1,200 Climbing Indianapolis Center
07:49AM 40.4050 -83.7861 193° South 464 534 33,300 1,020 Climbing Indianapolis Center
07:50AM 40.2758 -83.8264 193° South 464 534 34,300 780 Climbing Indianapolis Center
07:51AM 40.1486 -83.8639 194° South 470 541 34,900 300 Climbing Indianapolis Center
07:52AM 40.0214 -83.9039 193° South 470 541 35,000  Climbing Indianapolis Center
07:53AM 39.8939 -83.9411 194° South 470 541 35,000  Level Indianapolis Center
07:54AM 39.7667 -83.9811 193° South 470 541 35,000  Level Indianapolis Center
07:55AM 39.6372 -84.0208 185° South 470 541 35,000  Level Indianapolis Center
07:56AM 39.5081 -84.0361 178° South 475 547 35,000  Level Indianapolis Center
07:57AM 39.3744 -84.0297 178° South 475 547 35,000  Level Indianapolis Center
07:58AM 39.2453 -84.0236 179° South 475 547 35,000 -60 Level Indianapolis Center
07:59AM 39.1139 -84.0200 179° South 475 547 34,900 -60 Descending Indianapolis Center
08:00AM 38.9742 -84.0164 178° South 468 539 34,900  Level Indianapolis Center
08:01AM 38.8472 -84.0103 177° South 468 539 34,900  Level Indianapolis Center
08:02AM 38.7178 -84.0014 179° South 463 533 35,000  Climbing Indianapolis Center
08:03AM 38.5947 -83.9981 178° South 451 519 35,000  Level Indianapolis Center
08:04AM 38.4675 -83.9919 179° South 451 519 35,000  Level Indianapolis Center
08:05AM 38.3425 -83.9886 179° South 457 526 35,000  Level Indianapolis Center
08:06AM 38.2214 -83.9853 178° South 457 526 35,000  Level Indianapolis Center
08:07AM 38.0964 -83.9792 179° South 451 519 35,000  Level Indianapolis Center
08:08AM 37.9733 -83.9758 178° South 451 519 35,000  Level Indianapolis Center
08:09AM 37.8483 -83.9700 179° South 446 513 35,000  Level Indianapolis Center
08:10AM 37.7253 -83.9667 179° South 446 513 35,000  Level Indianapolis Center
08:11AM 37.6000 -83.9633 178° South 446 513 35,000  Level Indianapolis Center
08:12AM 37.4769 -83.9575 178° South 446 513 35,000  Level Indianapolis Center
08:13AM 37.3561 -83.9517 179° South 440 506 35,000  Level Indianapolis Center
08:14AM 37.2308 -83.9483 179° South 440 506 35,000  Level Indianapolis Center
08:15AM 37.1097 -83.9450 178° South 440 506 35,000  Level Indianapolis Center
08:16AM 36.9847 -83.9392 179° South 440 506 35,000  Level Indianapolis Center
08:17AM 36.8594 -83.9361 178° South 440 506 35,000  Level Indianapolis Center
08:20AM 36.5775 -83.9250 177° South 443 510 35,000  Level Atlanta Center
08:21AM 36.4650 -83.9175 176° South 443 510 35,000  Level Atlanta Center
08:22AM 36.3461 -83.9072 166° South 438 504 35,000  Level Atlanta Center
08:23AM 36.2231 -83.8689 166° South 444 511 35,000  Level Atlanta Center
08:24AM 36.0997 -83.8306 166° South 449 517 35,000  Level Atlanta Center
08:25AM 35.9808 -83.7950 165° South 449 517 35,000  Level Atlanta Center
08:26AM 35.8578 -83.7544 167° South 449 517 35,000  Level Atlanta Center
08:27AM 35.7344 -83.7189 167° South 449 517 35,000  Level Atlanta Center
08:28AM 35.6114 -83.6836 166° South 449 517 35,000  Level Atlanta Center
08:29AM 35.4881 -83.6458 165° South 449 517 35,000  Level Atlanta Center
08:30AM 35.3650 -83.6058 168° South 449 517 35,000  Level Atlanta Center
08:31AM 35.2439 -83.5733 166° South 449 517 35,000  Level Atlanta Center
08:32AM 35.1081 -83.5311 166° South 449 517 35,000  Level Atlanta Center
08:33AM 34.9867 -83.4936 166° South 449 517 35,000  Level Atlanta Center
08:34AM 34.8636 -83.4567 167° South 449 517 35,000  Level Atlanta Center
08:35AM 34.7444 -83.4219 167° South 454 522 35,000  Level Atlanta Center
08:36AM 34.6317 -83.3900 165° South 456 525 35,000  Level Atlanta Center
08:37AM 34.5083 -83.3506 170° South 456 525 35,000  Level Atlanta Center
08:38AM 34.3828 -83.3239 170° South 451 519 35,000  Level Atlanta Center
08:39AM 34.2636 -83.2997 170° South 446 513 35,000  Level Atlanta Center
08:40AM 34.1383 -83.2733 170° South 451 519 35,000  Level Atlanta Center
08:41AM 34.0025 -83.2444 171° South 451 519 35,000  Level Atlanta Center
08:42AM 33.8728 -83.2206 170° South 451 519 35,000  Level Atlanta Center
08:43AM 33.7497 -83.1944 170° South 451 519 35,000  Level Atlanta Center
08:44AM 33.6242 -83.1681 170° South 456 525 35,000  Level Atlanta Center
08:45AM 33.5008 -83.1419 172° South 456 525 35,000  Level Atlanta Center
08:46AM 33.3756 -83.1208 170° South 451 519 35,000  Level Atlanta Center
08:47AM 33.2522 -83.0950 171° South 451 519 35,000  Level Atlanta Center
08:48AM 33.1308 -83.0714 170° South 446 513 35,000  Level Atlanta Center
08:49AM 33.0222 -83.0478 171° South 446 513 35,000  Level Atlanta Center
08:51AM 32.7761 -82.9989 169° South 443 510 35,000 -120 Level Jacksonville Center
08:52AM 32.6675 -82.9739 171° South 455 524 34,700 -540 Descending Jacksonville Center
08:53AM 32.5297 -82.9492 170° South 455 524 34,000 -360 Descending Jacksonville Center
08:54AM 32.4169 -82.9244 170° South 460 529 34,000  Level Jacksonville Center
08:55AM 32.2939 -82.9000 171° South 460 529 34,000  Level Jacksonville Center
08:56AM 32.1686 -82.8753 170° South 460 529 34,000  Level Jacksonville Center
08:57AM 32.0433 -82.8483 171° South 455 524 34,000  Level Jacksonville Center
08:58AM 31.9181 -82.8239 171° South 455 524 34,000  Level Jacksonville Center
08:59AM 31.7950 -82.7997 171° South 455 524 34,000  Level Jacksonville Center
09:00AM 31.6694 -82.7753 171° South 455 524 34,000  Level Jacksonville Center
09:01AM 31.5442 -82.7511 170° South 455 524 34,000  Level Jacksonville Center
09:02AM 31.4169 -82.7244 170° South 460 529 34,000  Level Jacksonville Center
09:03AM 31.2789 -82.6956 171° South 460 529 34,000  Level Jacksonville Center
09:04AM 31.1536 -82.6717 171° South 465 535 34,000  Level Jacksonville Center
09:05AM 31.0408 -82.6500 171° South 465 535 34,000  Level Jacksonville Center
09:06AM 30.9156 -82.6261 171° South 465 535 34,000 -60 Level Jacksonville Center
09:07AM 30.7903 -82.6025 170° South 465 535 33,900  Descending Jacksonville Center
09:08AM 30.6628 -82.5761 170° South 470 541 34,000  Climbing Jacksonville Center
09:09AM 30.5353 -82.5500 170° South 464 534 34,000  Level Jacksonville Center
09:10AM 30.4122 -82.5242 170° South 464 534 34,000  Level Jacksonville Center
09:11AM 30.2825 -82.4981 171° South 469 540 34,000 -600 Level Jacksonville Center
09:12AM 30.1594 -82.4744 171° South 464 534 32,900 -1,260 Descending Jacksonville Center
09:13AM 30.0339 -82.4511 168° South 464 534 31,500 -1,440 Descending Jacksonville Center
09:14AM 29.9108 -82.4206 171° South 458 527 30,100 -1,380 Descending Jacksonville Center
09:15AM 29.7875 -82.3972 170° South 458 527 28,800 -1,320 Descending Jacksonville Center
09:16AM 29.6642 -82.3717 172° South 458 527 27,500 -1,320 Descending Jacksonville Center
09:17AM 29.5431 -82.3531 174° South 452 520 26,200 -1,320 Descending Jacksonville Center
09:18AM 29.4136 -82.3372 174° South 440 506 24,900 -1,560 Descending Jacksonville Center
09:19AM 29.2986 -82.3233 174° South 427 491 23,100 -2,100 Descending Jacksonville Center
09:20AM 29.1817 -82.3097 174° South 427 491 20,700 -2,400 Descending Jacksonville Center
09:21AM 29.0711 -82.2961 175° South 422 486 18,400 -2,220 Descending Jacksonville Center
09:22AM 28.9644 -82.2850 174° South 412 474 16,300 -2,100 Descending Jacksonville Center
09:23AM 28.8725 -82.2736 174° South 390 449 14,200 -1,140 Descending Jacksonville Center
09:25AM 28.6833 -82.2500 180° South 295 339 13,000 -960 Descending Tampa TRACON
09:26AM 28.6000 -82.2500 180° South 293 337 11,400 -1,680 Descending Tampa TRACON
09:27AM 28.5167 -82.2500 180° South 288 331 9,500 -1,800 Descending Tampa TRACON
09:28AM 28.4333 -82.2500 180° South 283 326 7,700 -1,260 Descending Tampa TRACON
09:29AM 28.3667 -82.2500 221° Southwest 275 316 7,000 -420 Descending Tampa TRACON
09:30AM 28.3167 -82.3000 249° West 288 331 7,000 -120 Level Tampa TRACON
09:31AM 28.2833 -82.4000 257° West 297 342 6,800 -1,260 Descending Tampa TRACON
09:32AM 28.2667 -82.4833 213° Southwest 280 322 4,400 -1,920 Descending Tampa TRACON
09:33AM 28.2000 -82.5333 180° South 254 292 3,000 -720 Descending Tampa TRACON
09:34AM 28.1500 -82.5333 180° South 203 234 3,000  Level Tampa TRACON